createdAt,value
2022-08-18T00:05:44.765Z,8.57
2022-08-18T00:15:49.245Z,6.53
2022-08-18T00:25:53.010Z,8.23
2022-08-18T00:35:54.346Z,10.50
2022-08-18T00:45:55.715Z,7.63
2022-08-18T00:55:57.028Z,8.65
2022-08-18T01:05:58.356Z,9.63
2022-08-18T01:15:59.731Z,9.70
2022-08-18T01:26:01.071Z,9.30
2022-08-18T01:36:03.493Z,8.75
2022-08-18T01:46:04.885Z,10.15
2022-08-18T01:56:06.220Z,10.02
2022-08-18T02:06:07.556Z,10.77
2022-08-18T02:16:09.595Z,8.88
2022-08-18T02:26:10.880Z,9.60
2022-08-18T02:36:12.326Z,11.65
2022-08-18T02:46:13.677Z,8.93
2022-08-18T02:56:32.918Z,10.32
2022-08-18T03:06:44.276Z,9.65
2022-08-18T03:16:54.239Z,9.77
2022-08-18T03:26:59.406Z,9.95
2022-08-18T03:37:00.787Z,9.48
2022-08-18T03:47:04.993Z,9.38
2022-08-18T03:57:06.410Z,9.55
2022-08-18T04:07:07.745Z,10.13
2022-08-18T04:17:09.090Z,10.07
2022-08-18T04:27:10.418Z,9.63
2022-08-18T04:37:11.877Z,10.38
2022-08-18T04:47:13.383Z,9.57
2022-08-18T04:57:15.132Z,10.35
2022-08-18T05:07:16.500Z,10.65
2022-08-18T05:17:17.755Z,9.25
2022-08-18T05:27:19.068Z,11.77
2022-08-18T05:37:20.440Z,10.07
2022-08-18T05:47:21.829Z,10.45
2022-08-18T05:57:23.221Z,13.40
2022-08-18T06:07:25.195Z,14.73
2022-08-18T06:17:26.531Z,14.98
2022-08-18T06:27:30.640Z,12.18
2022-08-18T06:37:32.018Z,11.97
2022-08-18T06:47:33.350Z,11.13
2022-08-18T06:57:34.846Z,10.45
2022-08-18T07:07:40.447Z,14.32
2022-08-18T07:17:52.446Z,12.65
2022-08-18T07:27:56.289Z,12.50
2022-08-18T07:37:58.380Z,11.07
2022-08-18T07:48:07.155Z,10.85
2022-08-18T07:58:16.995Z,11.55
2022-08-18T08:08:19.617Z,11.90
2022-08-18T08:18:26.492Z,13.38
2022-08-18T08:28:27.972Z,12.82
2022-08-18T08:38:42.218Z,11.40
2022-08-18T08:48:45.531Z,13.63
2022-08-18T08:58:46.908Z,12.45
2022-08-18T09:08:48.168Z,12.98
2022-08-18T09:18:49.607Z,13.88
2022-08-18T09:28:50.907Z,17.88
2022-08-18T09:39:27.743Z,17.15
2022-08-18T09:49:29.294Z,19.00
2022-08-18T09:59:31.381Z,23.33
2022-08-18T10:09:36.855Z,20.55
2022-08-18T10:19:39.535Z,23.52
2022-08-18T10:29:41.063Z,26.15
2022-08-18T10:39:42.635Z,26.25
2022-08-18T10:49:46.645Z,27.30
2022-08-18T11:20:18.190Z,25.80
2022-08-18T11:30:19.629Z,25.95
2022-08-18T11:50:54.507Z,18.05
2022-08-18T12:00:57.318Z,21.17
2022-08-18T12:11:02.993Z,21.23
2022-08-18T12:21:24.284Z,23.80
2022-08-18T12:31:42.056Z,21.55
2022-08-18T12:41:47.013Z,21.92
2022-08-18T12:51:50.315Z,23.00
2022-08-18T13:01:51.951Z,20.67
2022-08-18T13:12:00.276Z,22.13
2022-08-18T13:22:01.708Z,17.55
2022-08-18T13:32:08.920Z,14.60
2022-08-18T13:42:26.190Z,12.77
2022-08-18T13:52:44.596Z,12.43
2022-08-18T14:02:47.975Z,11.70
2022-08-18T14:12:49.737Z,10.50
2022-08-18T14:23:10.064Z,11.40
2022-08-18T14:33:11.764Z,13.13
2022-08-18T14:43:14.145Z,11.05
2022-08-18T14:53:15.828Z,10.48
2022-08-18T15:03:17.883Z,11.73
2022-08-18T15:23:46.801Z,12.10
2022-08-18T15:33:50.092Z,12.73
2022-08-18T15:43:53.462Z,11.20
2022-08-18T15:53:56.380Z,12.73
2022-08-18T16:03:57.870Z,11.80
2022-08-18T16:13:59.302Z,12.18
2022-08-18T16:24:00.686Z,13.10
2022-08-18T16:34:02.040Z,12.40
2022-08-18T16:44:03.388Z,11.63
2022-08-18T16:54:05.352Z,13.32
2022-08-18T17:04:13.504Z,13.30
2022-08-18T17:14:16.007Z,13.73
2022-08-18T17:24:32.022Z,12.15
2022-08-18T17:34:35.899Z,12.20
2022-08-18T17:44:46.174Z,12.20
2022-08-18T17:54:49.441Z,16.98
2022-08-18T18:04:52.591Z,13.00
2022-08-18T18:14:53.853Z,14.43
2022-08-18T18:24:55.125Z,13.27
2022-08-18T18:34:56.384Z,13.75
2022-08-18T18:44:58.168Z,11.50
2022-08-18T18:54:59.741Z,12.18
2022-08-18T19:05:01.449Z,13.00
2022-08-18T19:15:03.303Z,11.52
2022-08-18T19:25:04.636Z,16.67
2022-08-18T19:35:11.953Z,17.17
2022-08-18T19:45:16.964Z,18.25
2022-08-18T20:05:21.171Z,17.55
2022-08-18T20:15:22.501Z,17.98
2022-08-18T20:25:23.897Z,19.02
2022-08-18T20:35:25.276Z,19.75
2022-08-18T20:45:26.630Z,20.33
2022-08-18T20:55:30.636Z,20.02
2022-08-18T21:15:35.595Z,21.83
2022-08-18T21:25:37.025Z,21.93
2022-08-18T21:35:38.384Z,23.20
2022-08-18T21:45:39.761Z,20.83
2022-08-18T21:55:41.089Z,20.02
2022-08-18T22:05:58.258Z,20.85
2022-08-18T22:16:01.613Z,23.45
2022-08-18T22:26:03.057Z,21.23
2022-08-18T22:36:04.536Z,22.90
2022-08-18T22:46:05.864Z,20.13
2022-08-18T22:56:07.201Z,24.08
2022-08-18T23:06:11.585Z,20.92
2022-08-18T23:16:31.197Z,23.52
2022-08-18T23:26:34.344Z,22.70
2022-08-18T23:36:41.239Z,21.25
2022-08-18T23:46:45.121Z,23.60
2022-08-18T23:56:46.461Z,23.15
